Spring Mountain Youth Camp, Nevada Weather observations

Data are for 60 minute period ending at time listed.
 Day   Time   Solar   Ave.   Ave.  Ave.  Vector  Max.   Baro.   Total    
  of    of     Rad.   Air    Rel.  Wind   Wind   Wind  Press.  Precip.   
Year   Day            Temp.  Hum.  Speed  Dir.   Gust                    
2015   (PST)  Kw/m2    F      %     mph   deg.    mph    mb.     in.     
-------------------------------------------------------------------------
 117    2:00   0.00   27.5    51    7.1   145    13.2   789.8    0.00 
 117    3:00   0.00   27.3    53    6.0   141    13.1   790.0    0.00 
 117    4:00   0.00   26.5    55    5.3   147    12.6   790.1    0.00 
 117    5:00   0.00   25.9    57    4.8   141    10.4   790.4    0.00 
 117    6:00   0.02   26.4    57    5.2   149    10.2   790.7    0.00 
 117    7:00   0.30   31.5    47    4.7   146    10.8   790.9    0.00 
 117    8:00   0.34   37.1    40    3.3   150    11.7   791.0    0.00 
 117    9:00   0.73   40.5    36    2.7   340     9.4   791.3    0.00 
 117   10:00   0.89   44.2    32    3.6     3    12.5   791.6    0.00 
 117   11:00   1.00   45.3    30    3.8     4    14.0   791.9    0.00 
 117   12:00   1.05   46.9    28    3.6    11    14.5   791.9    0.00 
 117   13:00   1.04   48.7    27    4.2     9    15.1   791.9    0.00 
 117   14:00   0.96   50.0    26    4.0   357    16.0   791.8    0.00 
 117   15:00   0.83   51.9    24    3.4     3    13.2   791.8    0.00 
 117   16:00   0.64   52.0    23    3.4     2    12.4   791.7    0.00 
 117   17:00   0.42   50.7    24    3.3    31    11.4   791.8    0.00 
 117   18:00   0.16   48.1    26    2.4   157     8.0   791.8    0.00 
 117   19:00   0.01   42.3    31    2.6   143     6.1   791.8    0.00 
 117   20:00   0.00   40.3    32    1.5   155     4.5   792.3    0.00 
 117   21:00   0.00   40.2    33    2.1   158     5.8   792.7    0.00 
 117   22:00   0.00   40.6    34    1.4   169     5.1   793.0    0.00 
 117   23:00   0.00   40.9    35    1.2    17     6.4   793.0    0.00 
 118    0:00   0.00   41.3    35    1.9   355     5.5   793.1    0.00 
 118    1:00   0.00   40.4    37    0.9    26     5.3   793.0    0.00 

Return to Spring Mountain Youth Camp graphs page.


Western Regional Climate Center,wrcc@dri.edu